sensor_id;sensor_type;location;lat;lon;timestamp;P1;durP1;ratioP1;P2;durP2;ratioP2
59970;SDS011;45825;45.434;9.116;2022-09-09T00:01:59;12.30;;;7.10;;
59970;SDS011;45825;45.434;9.116;2022-09-09T00:12:11;12.63;;;8.48;;
59970;SDS011;45825;45.434;9.116;2022-09-09T00:14:57;11.95;;;8.25;;
59970;SDS011;45825;45.434;9.116;2022-09-09T00:17:38;16.50;;;8.80;;
59970;SDS011;45825;45.434;9.116;2022-09-09T00:20:25;15.30;;;8.80;;
59970;SDS011;45825;45.434;9.116;2022-09-09T00:22:59;14.40;;;9.63;;
59970;SDS011;45825;45.434;9.116;2022-09-09T00:25:35;14.40;;;9.45;;
59970;SDS011;45825;45.434;9.116;2022-09-09T00:28:13;13.32;;;9.32;;
59970;SDS011;45825;45.434;9.116;2022-09-09T00:30:42;16.98;;;11.20;;
59970;SDS011;45825;45.434;9.116;2022-09-09T00:33:12;16.00;;;10.50;;
59970;SDS011;45825;45.434;9.116;2022-09-09T00:35:56;12.98;;;9.82;;
59970;SDS011;45825;45.434;9.116;2022-09-09T00:38:36;14.93;;;9.80;;
59970;SDS011;45825;45.434;9.116;2022-09-09T00:43:46;14.52;;;10.55;;
59970;SDS011;45825;45.434;9.116;2022-09-09T00:49:14;17.42;;;11.13;;
59970;SDS011;45825;45.434;9.116;2022-09-09T00:57:31;14.27;;;10.85;;
59970;SDS011;45825;45.434;9.116;2022-09-09T01:05:30;16.02;;;11.98;;
59970;SDS011;45825;45.434;9.116;2022-09-09T01:08:02;17.15;;;12.00;;
59970;SDS011;45825;45.434;9.116;2022-09-09T01:10:52;17.75;;;11.68;;
59970;SDS011;45825;45.434;9.116;2022-09-09T01:13:22;16.75;;;12.13;;
59970;SDS011;45825;45.434;9.116;2022-09-09T01:15:50;18.20;;;13.13;;
59970;SDS011;45825;45.434;9.116;2022-09-09T01:18:19;16.52;;;12.68;;
59970;SDS011;45825;45.434;9.116;2022-09-09T01:21:04;20.52;;;13.10;;
59970;SDS011;45825;45.434;9.116;2022-09-09T01:26:38;17.15;;;13.25;;
59970;SDS011;45825;45.434;9.116;2022-09-09T01:29:07;17.83;;;12.35;;
59970;SDS011;45825;45.434;9.116;2022-09-09T01:31:41;17.85;;;13.10;;
59970;SDS011;45825;45.434;9.116;2022-09-09T01:34:17;16.33;;;12.80;;
59970;SDS011;45825;45.434;9.116;2022-09-09T01:36:43;16.67;;;11.98;;
59970;SDS011;45825;45.434;9.116;2022-09-09T01:39:15;15.40;;;12.23;;
59970;SDS011;45825;45.434;9.116;2022-09-09T01:41:41;16.05;;;12.68;;
59970;SDS011;45825;45.434;9.116;2022-09-09T01:44:07;17.63;;;12.75;;
59970;SDS011;45825;45.434;9.116;2022-09-09T01:46:34;17.73;;;13.15;;
59970;SDS011;45825;45.434;9.116;2022-09-09T01:49:00;19.00;;;13.80;;
59970;SDS011;45825;45.434;9.116;2022-09-09T01:51:29;17.67;;;14.27;;
59970;SDS011;45825;45.434;9.116;2022-09-09T01:53:55;21.85;;;14.85;;
59970;SDS011;45825;45.434;9.116;2022-09-09T02:04:39;19.70;;;15.20;;
59970;SDS011;45825;45.434;9.116;2022-09-09T02:07:50;21.02;;;14.85;;
59970;SDS011;45825;45.434;9.116;2022-09-09T02:12:39;19.15;;;14.73;;
59970;SDS011;45825;45.434;9.116;2022-09-09T02:15:54;18.77;;;14.95;;
59970;SDS011;45825;45.434;9.116;2022-09-09T02:18:39;20.15;;;14.50;;
59970;SDS011;45825;45.434;9.116;2022-09-09T02:21:11;21.52;;;16.63;;
59970;SDS011;45825;45.434;9.116;2022-09-09T02:23:39;21.45;;;15.82;;
59970;SDS011;45825;45.434;9.116;2022-09-09T02:26:07;19.80;;;15.88;;
59970;SDS011;45825;45.434;9.116;2022-09-09T02:28:39;21.15;;;15.73;;
59970;SDS011;45825;45.434;9.116;2022-09-09T02:31:07;21.45;;;15.98;;
59970;SDS011;45825;45.434;9.116;2022-09-09T02:33:37;20.48;;;14.55;;
59970;SDS011;45825;45.434;9.116;2022-09-09T02:36:07;22.27;;;15.70;;
59970;SDS011;45825;45.434;9.116;2022-09-09T02:38:38;20.02;;;14.82;;
59970;SDS011;45825;45.434;9.116;2022-09-09T02:41:10;20.77;;;16.30;;
59970;SDS011;45825;45.434;9.116;2022-09-09T02:43:36;25.48;;;16.83;;
59970;SDS011;45825;45.434;9.116;2022-09-09T02:56:50;22.23;;;17.63;;
59970;SDS011;45825;45.434;9.116;2022-09-09T02:59:19;27.13;;;19.73;;
59970;SDS011;45825;45.434;9.116;2022-09-09T03:01:44;22.75;;;18.67;;
59970;SDS011;45825;45.434;9.116;2022-09-09T03:04:10;23.30;;;19.15;;
59970;SDS011;45825;45.434;9.116;2022-09-09T03:06:35;23.00;;;18.10;;
59970;SDS011;45825;45.434;9.116;2022-09-09T03:09:00;24.48;;;19.48;;
59970;SDS011;45825;45.434;9.116;2022-09-09T03:11:27;24.90;;;20.25;;
59970;SDS011;45825;45.434;9.116;2022-09-09T03:13:53;23.58;;;19.10;;
59970;SDS011;45825;45.434;9.116;2022-09-09T03:16:21;27.38;;;19.90;;
59970;SDS011;45825;45.434;9.116;2022-09-09T03:18:47;23.17;;;18.30;;
59970;SDS011;45825;45.434;9.116;2022-09-09T03:21:12;22.40;;;18.17;;
59970;SDS011;45825;45.434;9.116;2022-09-09T03:23:37;25.75;;;19.83;;
59970;SDS011;45825;45.434;9.116;2022-09-09T03:26:03;28.42;;;20.48;;
59970;SDS011;45825;45.434;9.116;2022-09-09T03:28:28;26.08;;;20.40;;
59970;SDS011;45825;45.434;9.116;2022-09-09T03:31:02;27.58;;;21.60;;
59970;SDS011;45825;45.434;9.116;2022-09-09T03:33:29;27.75;;;19.60;;
59970;SDS011;45825;45.434;9.116;2022-09-09T03:35:55;28.58;;;21.17;;
59970;SDS011;45825;45.434;9.116;2022-09-09T03:38:21;25.17;;;20.80;;
59970;SDS011;45825;45.434;9.116;2022-09-09T03:40:51;25.23;;;20.27;;
59970;SDS011;45825;45.434;9.116;2022-09-09T03:43:22;24.33;;;20.30;;
59970;SDS011;45825;45.434;9.116;2022-09-09T03:45:51;27.75;;;20.23;;
59970;SDS011;45825;45.434;9.116;2022-09-09T03:48:17;25.02;;;20.15;;
59970;SDS011;45825;45.434;9.116;2022-09-09T03:50:49;28.48;;;21.38;;
59970;SDS011;45825;45.434;9.116;2022-09-09T03:53:16;29.60;;;20.40;;
59970;SDS011;45825;45.434;9.116;2022-09-09T03:55:47;25.55;;;20.00;;
59970;SDS011;45825;45.434;9.116;2022-09-09T03:58:15;25.63;;;20.30;;
59970;SDS011;45825;45.434;9.116;2022-09-09T04:00:41;26.40;;;20.20;;
59970;SDS011;45825;45.434;9.116;2022-09-09T04:03:10;27.88;;;21.00;;
59970;SDS011;45825;45.434;9.116;2022-09-09T04:05:35;28.60;;;21.67;;
59970;SDS011;45825;45.434;9.116;2022-09-09T04:08:04;29.75;;;22.13;;
59970;SDS011;45825;45.434;9.116;2022-09-09T04:10:30;25.13;;;21.33;;
59970;SDS011;45825;45.434;9.116;2022-09-09T04:12:56;26.83;;;20.80;;
59970;SDS011;45825;45.434;9.116;2022-09-09T04:15:21;30.70;;;22.00;;
59970;SDS011;45825;45.434;9.116;2022-09-09T04:17:47;28.65;;;23.23;;
59970;SDS011;45825;45.434;9.116;2022-09-09T04:20:12;29.17;;;21.75;;
59970;SDS011;45825;45.434;9.116;2022-09-09T04:22:37;34.17;;;23.27;;
59970;SDS011;45825;45.434;9.116;2022-09-09T04:25:04;27.10;;;22.60;;
59970;SDS011;45825;45.434;9.116;2022-09-09T04:27:30;30.83;;;22.38;;
59970;SDS011;45825;45.434;9.116;2022-09-09T04:29:56;27.35;;;22.00;;
59970;SDS011;45825;45.434;9.116;2022-09-09T04:32:22;32.13;;;22.58;;
59970;SDS011;45825;45.434;9.116;2022-09-09T04:34:47;27.23;;;21.73;;
59970;SDS011;45825;45.434;9.116;2022-09-09T04:37:13;31.45;;;23.38;;
59970;SDS011;45825;45.434;9.116;2022-09-09T04:39:39;28.02;;;23.02;;
59970;SDS011;45825;45.434;9.116;2022-09-09T04:42:04;29.17;;;22.55;;
59970;SDS011;45825;45.434;9.116;2022-09-09T04:44:29;28.70;;;22.67;;
59970;SDS011;45825;45.434;9.116;2022-09-09T04:46:55;29.40;;;22.17;;
59970;SDS011;45825;45.434;9.116;2022-09-09T04:49:21;27.02;;;21.60;;
59970;SDS011;45825;45.434;9.116;2022-09-09T04:51:48;30.15;;;22.13;;
59970;SDS011;45825;45.434;9.116;2022-09-09T04:54:14;31.05;;;23.10;;
59970;SDS011;45825;45.434;9.116;2022-09-09T04:56:39;26.88;;;22.52;;
59970;SDS011;45825;45.434;9.116;2022-09-09T04:59:06;32.33;;;22.58;;
59970;SDS011;45825;45.434;9.116;2022-09-09T05:01:32;28.63;;;22.08;;
59970;SDS011;45825;45.434;9.116;2022-09-09T05:03:57;26.50;;;22.35;;
59970;SDS011;45825;45.434;9.116;2022-09-09T05:06:22;27.38;;;22.85;;
59970;SDS011;45825;45.434;9.116;2022-09-09T05:08:49;29.45;;;22.27;;
59970;SDS011;45825;45.434;9.116;2022-09-09T05:11:19;26.60;;;21.55;;
59970;SDS011;45825;45.434;9.116;2022-09-09T05:13:48;26.70;;;21.58;;
59970;SDS011;45825;45.434;9.116;2022-09-09T05:16:15;29.13;;;21.95;;
59970;SDS011;45825;45.434;9.116;2022-09-09T05:18:41;27.20;;;21.35;;
59970;SDS011;45825;45.434;9.116;2022-09-09T05:21:11;26.27;;;20.67;;
59970;SDS011;45825;45.434;9.116;2022-09-09T05:23:38;25.27;;;20.50;;
59970;SDS011;45825;45.434;9.116;2022-09-09T05:26:04;25.05;;;19.60;;
59970;SDS011;45825;45.434;9.116;2022-09-09T05:28:30;26.52;;;19.15;;
59970;SDS011;45825;45.434;9.116;2022-09-09T05:30:56;25.90;;;17.73;;
59970;SDS011;45825;45.434;9.116;2022-09-09T05:33:23;25.13;;;19.65;;
59970;SDS011;45825;45.434;9.116;2022-09-09T05:35:54;22.13;;;17.88;;
59970;SDS011;45825;45.434;9.116;2022-09-09T05:38:21;24.02;;;18.02;;
59970;SDS011;45825;45.434;9.116;2022-09-09T05:40:50;27.23;;;18.77;;
59970;SDS011;45825;45.434;9.116;2022-09-09T05:43:15;26.30;;;18.42;;
59970;SDS011;45825;45.434;9.116;2022-09-09T05:45:41;26.10;;;19.50;;
59970;SDS011;45825;45.434;9.116;2022-09-09T05:48:06;22.40;;;18.23;;
59970;SDS011;45825;45.434;9.116;2022-09-09T05:50:32;27.42;;;20.35;;
59970;SDS011;45825;45.434;9.116;2022-09-09T05:52:58;26.65;;;19.75;;
59970;SDS011;45825;45.434;9.116;2022-09-09T05:55:24;25.55;;;19.88;;
59970;SDS011;45825;45.434;9.116;2022-09-09T05:57:50;26.42;;;19.60;;
59970;SDS011;45825;45.434;9.116;2022-09-09T06:00:17;27.42;;;19.35;;
59970;SDS011;45825;45.434;9.116;2022-09-09T06:02:43;25.45;;;18.02;;
59970;SDS011;45825;45.434;9.116;2022-09-09T06:05:08;24.92;;;18.48;;
59970;SDS011;45825;45.434;9.116;2022-09-09T06:07:34;25.05;;;17.88;;
59970;SDS011;45825;45.434;9.116;2022-09-09T06:09:59;23.70;;;18.63;;
59970;SDS011;45825;45.434;9.116;2022-09-09T06:12:25;23.45;;;18.15;;
59970;SDS011;45825;45.434;9.116;2022-09-09T06:14:51;24.95;;;18.65;;
59970;SDS011;45825;45.434;9.116;2022-09-09T06:17:19;23.65;;;19.38;;
59970;SDS011;45825;45.434;9.116;2022-09-09T06:19:44;23.08;;;17.95;;
59970;SDS011;45825;45.434;9.116;2022-09-09T06:22:10;22.05;;;15.73;;
59970;SDS011;45825;45.434;9.116;2022-09-09T06:24:37;24.58;;;16.98;;
59970;SDS011;45825;45.434;9.116;2022-09-09T06:27:02;27.73;;;17.35;;
59970;SDS011;45825;45.434;9.116;2022-09-09T06:29:28;28.02;;;17.10;;
59970;SDS011;45825;45.434;9.116;2022-09-09T06:31:53;22.63;;;16.38;;
59970;SDS011;45825;45.434;9.116;2022-09-09T06:34:19;25.10;;;17.30;;
59970;SDS011;45825;45.434;9.116;2022-09-09T06:36:44;22.92;;;16.52;;
59970;SDS011;45825;45.434;9.116;2022-09-09T06:39:10;24.30;;;17.10;;
59970;SDS011;45825;45.434;9.116;2022-09-09T06:41:36;26.55;;;18.00;;
59970;SDS011;45825;45.434;9.116;2022-09-09T06:44:03;26.33;;;17.17;;
59970;SDS011;45825;45.434;9.116;2022-09-09T06:46:29;24.20;;;16.88;;
59970;SDS011;45825;45.434;9.116;2022-09-09T06:48:57;22.60;;;17.45;;
59970;SDS011;45825;45.434;9.116;2022-09-09T06:51:26;24.85;;;17.58;;
59970;SDS011;45825;45.434;9.116;2022-09-09T06:53:53;21.05;;;15.30;;
59970;SDS011;45825;45.434;9.116;2022-09-09T06:56:25;19.05;;;15.68;;
59970;SDS011;45825;45.434;9.116;2022-09-09T06:58:53;21.10;;;15.02;;
59970;SDS011;45825;45.434;9.116;2022-09-09T07:01:23;23.73;;;15.30;;
59970;SDS011;45825;45.434;9.116;2022-09-09T07:03:50;20.90;;;15.57;;
59970;SDS011;45825;45.434;9.116;2022-09-09T07:06:19;18.80;;;13.52;;
59970;SDS011;45825;45.434;9.116;2022-09-09T07:08:50;21.10;;;13.18;;
59970;SDS011;45825;45.434;9.116;2022-09-09T07:11:18;21.45;;;13.63;;
59970;SDS011;45825;45.434;9.116;2022-09-09T07:13:45;17.20;;;12.88;;
59970;SDS011;45825;45.434;9.116;2022-09-09T07:16:11;19.48;;;11.68;;
59970;SDS011;45825;45.434;9.116;2022-09-09T07:18:39;16.75;;;10.70;;
59970;SDS011;45825;45.434;9.116;2022-09-09T07:21:06;15.57;;;9.40;;
59970;SDS011;45825;45.434;9.116;2022-09-09T07:23:31;13.07;;;9.02;;
59970;SDS011;45825;45.434;9.116;2022-09-09T07:25:57;13.30;;;8.10;;
59970;SDS011;45825;45.434;9.116;2022-09-09T07:28:23;11.15;;;7.90;;
59970;SDS011;45825;45.434;9.116;2022-09-09T07:30:56;12.10;;;7.38;;
59970;SDS011;45825;45.434;9.116;2022-09-09T07:33:23;15.00;;;8.25;;
59970;SDS011;45825;45.434;9.116;2022-09-09T07:35:49;12.75;;;6.85;;
59970;SDS011;45825;45.434;9.116;2022-09-09T07:38:15;11.10;;;6.80;;
59970;SDS011;45825;45.434;9.116;2022-09-09T07:40:41;10.85;;;6.85;;
59970;SDS011;45825;45.434;9.116;2022-09-09T07:43:06;12.30;;;6.22;;
59970;SDS011;45825;45.434;9.116;2022-09-09T07:45:33;11.75;;;5.97;;
59970;SDS011;45825;45.434;9.116;2022-09-09T07:47:59;11.52;;;6.40;;
59970;SDS011;45825;45.434;9.116;2022-09-09T07:50:25;10.43;;;5.50;;
59970;SDS011;45825;45.434;9.116;2022-09-09T07:52:51;10.70;;;5.10;;
59970;SDS011;45825;45.434;9.116;2022-09-09T07:55:18;9.82;;;5.30;;
59970;SDS011;45825;45.434;9.116;2022-09-09T07:57:44;11.88;;;4.60;;
59970;SDS011;45825;45.434;9.116;2022-09-09T08:00:10;9.63;;;4.60;;
59970;SDS011;45825;45.434;9.116;2022-09-09T08:02:36;11.32;;;4.47;;
59970;SDS011;45825;45.434;9.116;2022-09-09T08:05:01;9.45;;;3.88;;
59970;SDS011;45825;45.434;9.116;2022-09-09T08:07:27;8.95;;;3.95;;
59970;SDS011;45825;45.434;9.116;2022-09-09T08:09:53;9.40;;;4.10;;
59970;SDS011;45825;45.434;9.116;2022-09-09T08:12:20;10.68;;;4.18;;
59970;SDS011;45825;45.434;9.116;2022-09-09T08:14:46;12.38;;;4.32;;
59970;SDS011;45825;45.434;9.116;2022-09-09T08:17:11;8.68;;;4.10;;
59970;SDS011;45825;45.434;9.116;2022-09-09T08:19:36;8.15;;;3.90;;
59970;SDS011;45825;45.434;9.116;2022-09-09T08:22:02;11.30;;;3.85;;
59970;SDS011;45825;45.434;9.116;2022-09-09T08:24:28;15.82;;;4.13;;
59970;SDS011;45825;45.434;9.116;2022-09-09T08:26:53;8.68;;;3.20;;
59970;SDS011;45825;45.434;9.116;2022-09-09T08:29:19;7.05;;;3.00;;
59970;SDS011;45825;45.434;9.116;2022-09-09T08:31:46;10.07;;;3.10;;
59970;SDS011;45825;45.434;9.116;2022-09-09T08:34:16;5.88;;;2.70;;
59970;SDS011;45825;45.434;9.116;2022-09-09T08:36:45;6.97;;;2.47;;
59970;SDS011;45825;45.434;9.116;2022-09-09T08:39:12;5.93;;;2.42;;
59970;SDS011;45825;45.434;9.116;2022-09-09T08:58:34;11.65;;;2.72;;
59970;SDS011;45825;45.434;9.116;2022-09-09T09:12:10;5.30;;;1.67;;
59970;SDS011;45825;45.434;9.116;2022-09-09T09:14:43;5.63;;;1.90;;
59970;SDS011;45825;45.434;9.116;2022-09-09T09:17:18;5.10;;;1.80;;
59970;SDS011;45825;45.434;9.116;2022-09-09T09:19:45;8.88;;;1.63;;
59970;SDS011;45825;45.434;9.116;2022-09-09T09:30:18;4.72;;;1.23;;
59970;SDS011;45825;45.434;9.116;2022-09-09T09:32:59;6.82;;;1.30;;
59970;SDS011;45825;45.434;9.116;2022-09-09T09:35:27;2.85;;;1.20;;
59970;SDS011;45825;45.434;9.116;2022-09-09T09:37:52;3.50;;;1.17;;
59970;SDS011;45825;45.434;9.116;2022-09-09T09:40:19;7.53;;;1.20;;
59970;SDS011;45825;45.434;9.116;2022-09-09T09:45:27;2.10;;;0.93;;
59970;SDS011;45825;45.434;9.116;2022-09-09T09:48:10;3.72;;;1.10;;
59970;SDS011;45825;45.434;9.116;2022-09-09T09:50:47;1.77;;;0.90;;
59970;SDS011;45825;45.434;9.116;2022-09-09T09:53:28;3.70;;;1.02;;
59970;SDS011;45825;45.434;9.116;2022-09-09T09:56:03;5.82;;;1.10;;
59970;SDS011;45825;45.434;9.116;2022-09-09T09:58:32;4.13;;;1.20;;
59970;SDS011;45825;45.434;9.116;2022-09-09T10:01:03;3.65;;;0.80;;
59970;SDS011;45825;45.434;9.116;2022-09-09T10:03:33;5.53;;;1.10;;
59970;SDS011;45825;45.434;9.116;2022-09-09T10:06:02;4.40;;;1.13;;
59970;SDS011;45825;45.434;9.116;2022-09-09T10:08:28;5.18;;;1.10;;
59970;SDS011;45825;45.434;9.116;2022-09-09T10:15:57;2.30;;;0.88;;
59970;SDS011;45825;45.434;9.116;2022-09-09T10:18:38;4.35;;;1.13;;
59970;SDS011;45825;45.434;9.116;2022-09-09T10:26:42;4.80;;;1.30;;
59970;SDS011;45825;45.434;9.116;2022-09-09T10:31:48;2.95;;;1.40;;
59970;SDS011;45825;45.434;9.116;2022-09-09T10:40:17;3.45;;;1.20;;
59970;SDS011;45825;45.434;9.116;2022-09-09T10:42:55;3.05;;;1.00;;
59970;SDS011;45825;45.434;9.116;2022-09-09T10:45:49;3.50;;;1.10;;
59970;SDS011;45825;45.434;9.116;2022-09-09T10:51:10;2.80;;;0.90;;
59970;SDS011;45825;45.434;9.116;2022-09-09T10:56:56;3.83;;;1.35;;
59970;SDS011;45825;45.434;9.116;2022-09-09T10:59:26;2.83;;;1.10;;
59970;SDS011;45825;45.434;9.116;2022-09-09T11:01:59;2.60;;;1.10;;
59970;SDS011;45825;45.434;9.116;2022-09-09T11:04:33;4.75;;;1.20;;
59970;SDS011;45825;45.434;9.116;2022-09-09T11:07:05;1.70;;;0.85;;
59970;SDS011;45825;45.434;9.116;2022-09-09T11:09:35;3.10;;;1.20;;
59970;SDS011;45825;45.434;9.116;2022-09-09T11:12:06;3.40;;;0.98;;
59970;SDS011;45825;45.434;9.116;2022-09-09T11:14:48;5.30;;;1.17;;
59970;SDS011;45825;45.434;9.116;2022-09-09T11:17:21;2.05;;;0.88;;
59970;SDS011;45825;45.434;9.116;2022-09-09T11:19:49;3.23;;;1.10;;
59970;SDS011;45825;45.434;9.116;2022-09-09T11:27:43;2.72;;;0.82;;
59970;SDS011;45825;45.434;9.116;2022-09-09T11:30:20;4.80;;;1.10;;
59970;SDS011;45825;45.434;9.116;2022-09-09T11:38:18;3.53;;;1.10;;
59970;SDS011;45825;45.434;9.116;2022-09-09T11:40:44;3.47;;;1.00;;
59970;SDS011;45825;45.434;9.116;2022-09-09T11:43:12;3.35;;;1.10;;
59970;SDS011;45825;45.434;9.116;2022-09-09T11:45:40;2.35;;;0.80;;
59970;SDS011;45825;45.434;9.116;2022-09-09T11:48:22;3.85;;;0.95;;
59970;SDS011;45825;45.434;9.116;2022-09-09T11:53:58;3.50;;;1.10;;
59970;SDS011;45825;45.434;9.116;2022-09-09T11:56:44;6.43;;;1.13;;
59970;SDS011;45825;45.434;9.116;2022-09-09T11:59:19;3.22;;;1.20;;
59970;SDS011;45825;45.434;9.116;2022-09-09T12:01:50;3.15;;;1.20;;
59970;SDS011;45825;45.434;9.116;2022-09-09T12:06:53;4.47;;;1.10;;
59970;SDS011;45825;45.434;9.116;2022-09-09T12:11:51;4.82;;;1.50;;
59970;SDS011;45825;45.434;9.116;2022-09-09T12:14:23;7.72;;;1.55;;
59970;SDS011;45825;45.434;9.116;2022-09-09T12:19:41;2.22;;;1.10;;
59970;SDS011;45825;45.434;9.116;2022-09-09T12:33:45;4.13;;;1.20;;
59970;SDS011;45825;45.434;9.116;2022-09-09T12:36:16;3.72;;;1.00;;
59970;SDS011;45825;45.434;9.116;2022-09-09T12:38:46;4.90;;;1.27;;
59970;SDS011;45825;45.434;9.116;2022-09-09T12:41:24;3.65;;;1.30;;
59970;SDS011;45825;45.434;9.116;2022-09-09T12:43:51;3.78;;;1.38;;
59970;SDS011;45825;45.434;9.116;2022-09-09T12:46:36;3.90;;;1.27;;
59970;SDS011;45825;45.434;9.116;2022-09-09T12:49:05;4.13;;;1.40;;
59970;SDS011;45825;45.434;9.116;2022-09-09T12:51:48;4.35;;;1.30;;
59970;SDS011;45825;45.434;9.116;2022-09-09T12:54:14;4.18;;;1.30;;
59970;SDS011;45825;45.434;9.116;2022-09-09T12:56:40;5.00;;;1.33;;
59970;SDS011;45825;45.434;9.116;2022-09-09T12:59:21;3.45;;;1.15;;
59970;SDS011;45825;45.434;9.116;2022-09-09T13:01:59;5.43;;;1.35;;
59970;SDS011;45825;45.434;9.116;2022-09-09T13:04:24;4.57;;;1.45;;
59970;SDS011;45825;45.434;9.116;2022-09-09T13:06:50;4.25;;;1.00;;
59970;SDS011;45825;45.434;9.116;2022-09-09T13:09:17;4.80;;;1.30;;
59970;SDS011;45825;45.434;9.116;2022-09-09T13:11:52;5.63;;;1.30;;
59970;SDS011;45825;45.434;9.116;2022-09-09T13:14:31;2.88;;;1.20;;
59970;SDS011;45825;45.434;9.116;2022-09-09T13:17:02;3.22;;;1.25;;
59970;SDS011;45825;45.434;9.116;2022-09-09T13:19:30;5.28;;;1.13;;
59970;SDS011;45825;45.434;9.116;2022-09-09T13:22:00;4.18;;;1.20;;
59970;SDS011;45825;45.434;9.116;2022-09-09T13:24:38;3.38;;;1.10;;
59970;SDS011;45825;45.434;9.116;2022-09-09T13:27:04;3.17;;;1.40;;
59970;SDS011;45825;45.434;9.116;2022-09-09T13:29:52;4.18;;;1.10;;
59970;SDS011;45825;45.434;9.116;2022-09-09T13:32:22;7.18;;;1.27;;
59970;SDS011;45825;45.434;9.116;2022-09-09T13:34:57;4.93;;;1.33;;
59970;SDS011;45825;45.434;9.116;2022-09-09T13:37:33;7.18;;;1.40;;
59970;SDS011;45825;45.434;9.116;2022-09-09T13:40:01;4.03;;;1.13;;
59970;SDS011;45825;45.434;9.116;2022-09-09T13:42:31;3.55;;;1.30;;
59970;SDS011;45825;45.434;9.116;2022-09-09T13:45:00;5.13;;;1.25;;
59970;SDS011;45825;45.434;9.116;2022-09-09T13:47:33;3.10;;;1.30;;
59970;SDS011;45825;45.434;9.116;2022-09-09T13:50:19;3.70;;;1.17;;
59970;SDS011;45825;45.434;9.116;2022-09-09T13:52:48;2.13;;;1.13;;
59970;SDS011;45825;45.434;9.116;2022-09-09T13:55:16;2.72;;;1.05;;
59970;SDS011;45825;45.434;9.116;2022-09-09T14:00:22;6.30;;;1.50;;
59970;SDS011;45825;45.434;9.116;2022-09-09T14:02:49;5.03;;;1.13;;
59970;SDS011;45825;45.434;9.116;2022-09-09T14:05:15;5.25;;;1.20;;
59970;SDS011;45825;45.434;9.116;2022-09-09T14:07:41;3.38;;;1.10;;
59970;SDS011;45825;45.434;9.116;2022-09-09T14:10:08;2.97;;;1.30;;
59970;SDS011;45825;45.434;9.116;2022-09-09T14:12:34;3.05;;;1.20;;
59970;SDS011;45825;45.434;9.116;2022-09-09T14:15:00;2.13;;;1.10;;
59970;SDS011;45825;45.434;9.116;2022-09-09T14:17:26;2.75;;;1.33;;
59970;SDS011;45825;45.434;9.116;2022-09-09T14:19:54;3.35;;;1.15;;
59970;SDS011;45825;45.434;9.116;2022-09-09T14:22:20;3.03;;;1.10;;
59970;SDS011;45825;45.434;9.116;2022-09-09T14:24:45;2.50;;;1.10;;
59970;SDS011;45825;45.434;9.116;2022-09-09T14:27:11;6.68;;;1.30;;
59970;SDS011;45825;45.434;9.116;2022-09-09T14:29:36;5.35;;;1.10;;
59970;SDS011;45825;45.434;9.116;2022-09-09T14:32:01;4.50;;;1.30;;
59970;SDS011;45825;45.434;9.116;2022-09-09T14:34:27;5.18;;;1.25;;
59970;SDS011;45825;45.434;9.116;2022-09-09T14:36:52;4.35;;;1.17;;
59970;SDS011;45825;45.434;9.116;2022-09-09T14:39:17;2.78;;;0.93;;
59970;SDS011;45825;45.434;9.116;2022-09-09T14:41:46;2.78;;;1.15;;
59970;SDS011;45825;45.434;9.116;2022-09-09T14:44:12;3.88;;;1.27;;
59970;SDS011;45825;45.434;9.116;2022-09-09T14:46:37;3.70;;;1.38;;
59970;SDS011;45825;45.434;9.116;2022-09-09T14:49:03;3.42;;;1.13;;
59970;SDS011;45825;45.434;9.116;2022-09-09T14:51:29;3.03;;;1.25;;
59970;SDS011;45825;45.434;9.116;2022-09-09T14:53:58;4.72;;;1.20;;
59970;SDS011;45825;45.434;9.116;2022-09-09T14:56:25;2.33;;;1.20;;
59970;SDS011;45825;45.434;9.116;2022-09-09T14:58:53;2.50;;;1.17;;
59970;SDS011;45825;45.434;9.116;2022-09-09T15:01:20;3.70;;;1.65;;
59970;SDS011;45825;45.434;9.116;2022-09-09T15:03:51;3.83;;;1.50;;
59970;SDS011;45825;45.434;9.116;2022-09-09T15:06:18;3.58;;;1.40;;
59970;SDS011;45825;45.434;9.116;2022-09-09T15:08:44;3.47;;;1.33;;
59970;SDS011;45825;45.434;9.116;2022-09-09T15:11:10;4.07;;;1.35;;
59970;SDS011;45825;45.434;9.116;2022-09-09T15:13:37;2.88;;;1.63;;
59970;SDS011;45825;45.434;9.116;2022-09-09T15:16:08;3.63;;;1.20;;
59970;SDS011;45825;45.434;9.116;2022-09-09T15:18:35;4.07;;;1.50;;
59970;SDS011;45825;45.434;9.116;2022-09-09T15:21:02;5.22;;;1.60;;
59970;SDS011;45825;45.434;9.116;2022-09-09T15:23:32;5.88;;;1.50;;
59970;SDS011;45825;45.434;9.116;2022-09-09T15:25:58;3.38;;;1.33;;
59970;SDS011;45825;45.434;9.116;2022-09-09T15:28:24;4.40;;;1.50;;
59970;SDS011;45825;45.434;9.116;2022-09-09T15:30:50;6.00;;;1.58;;
59970;SDS011;45825;45.434;9.116;2022-09-09T15:33:17;5.95;;;1.60;;
59970;SDS011;45825;45.434;9.116;2022-09-09T15:35:43;7.47;;;1.77;;
59970;SDS011;45825;45.434;9.116;2022-09-09T15:38:08;3.25;;;1.52;;
59970;SDS011;45825;45.434;9.116;2022-09-09T15:40:33;6.85;;;1.60;;
59970;SDS011;45825;45.434;9.116;2022-09-09T15:42:59;5.30;;;1.60;;
59970;SDS011;45825;45.434;9.116;2022-09-09T15:45:24;5.97;;;1.88;;
59970;SDS011;45825;45.434;9.116;2022-09-09T15:47:53;3.65;;;1.58;;
59970;SDS011;45825;45.434;9.116;2022-09-09T15:50:19;3.67;;;1.60;;
59970;SDS011;45825;45.434;9.116;2022-09-09T15:52:44;5.82;;;1.70;;
59970;SDS011;45825;45.434;9.116;2022-09-09T15:55:10;3.83;;;1.67;;
59970;SDS011;45825;45.434;9.116;2022-09-09T15:57:35;5.35;;;1.42;;
59970;SDS011;45825;45.434;9.116;2022-09-09T16:00:01;4.22;;;1.67;;
59970;SDS011;45825;45.434;9.116;2022-09-09T16:02:29;4.72;;;1.65;;
59970;SDS011;45825;45.434;9.116;2022-09-09T16:04:55;6.55;;;1.88;;
59970;SDS011;45825;45.434;9.116;2022-09-09T16:07:22;5.88;;;1.50;;
59970;SDS011;45825;45.434;9.116;2022-09-09T16:09:47;3.80;;;1.40;;
59970;SDS011;45825;45.434;9.116;2022-09-09T16:12:13;5.40;;;1.63;;
59970;SDS011;45825;45.434;9.116;2022-09-09T16:14:39;4.30;;;1.40;;
59970;SDS011;45825;45.434;9.116;2022-09-09T16:17:05;4.97;;;1.40;;
59970;SDS011;45825;45.434;9.116;2022-09-09T16:19:31;5.43;;;1.52;;
59970;SDS011;45825;45.434;9.116;2022-09-09T16:21:57;5.35;;;1.63;;
59970;SDS011;45825;45.434;9.116;2022-09-09T16:24:22;5.20;;;1.88;;
59970;SDS011;45825;45.434;9.116;2022-09-09T16:26:50;4.38;;;1.60;;
59970;SDS011;45825;45.434;9.116;2022-09-09T16:29:17;2.75;;;1.40;;
59970;SDS011;45825;45.434;9.116;2022-09-09T16:31:44;5.35;;;1.80;;
59970;SDS011;45825;45.434;9.116;2022-09-09T16:34:10;4.22;;;1.83;;
59970;SDS011;45825;45.434;9.116;2022-09-09T16:36:36;3.25;;;1.45;;
59970;SDS011;45825;45.434;9.116;2022-09-09T16:39:07;5.15;;;1.67;;
59970;SDS011;45825;45.434;9.116;2022-09-09T16:41:35;7.05;;;1.90;;
59970;SDS011;45825;45.434;9.116;2022-09-09T16:44:05;6.57;;;2.10;;
59970;SDS011;45825;45.434;9.116;2022-09-09T16:46:33;5.88;;;1.92;;
59970;SDS011;45825;45.434;9.116;2022-09-09T16:49:01;5.72;;;2.25;;
59970;SDS011;45825;45.434;9.116;2022-09-09T16:51:29;4.28;;;1.80;;
59970;SDS011;45825;45.434;9.116;2022-09-09T16:54:00;8.15;;;2.30;;
59970;SDS011;45825;45.434;9.116;2022-09-09T16:56:27;7.30;;;1.90;;
59970;SDS011;45825;45.434;9.116;2022-09-09T16:58:55;4.57;;;1.65;;
59970;SDS011;45825;45.434;9.116;2022-09-09T17:01:24;2.42;;;1.40;;
59970;SDS011;45825;45.434;9.116;2022-09-09T17:03:53;4.40;;;1.77;;
59970;SDS011;45825;45.434;9.116;2022-09-09T17:06:19;6.03;;;1.70;;
59970;SDS011;45825;45.434;9.116;2022-09-09T17:08:44;5.80;;;1.80;;
59970;SDS011;45825;45.434;9.116;2022-09-09T17:11:13;6.50;;;1.90;;
59970;SDS011;45825;45.434;9.116;2022-09-09T17:13:43;6.63;;;2.88;;
59970;SDS011;45825;45.434;9.116;2022-09-09T17:16:10;7.13;;;3.45;;